Weather at Skeen Ranch Airport

Public forecast

Using degrees Fahrenheit for public forecast. Weather courtesy of forecast.io.

Closest aviation weather report (METAR) to Skeen Ranch Airport

Closest report is Sierra Blanca Regional Airport, 26.7 nm (49.5 km) NW. Retrieved 2021/12/01 12:15 UTC (2 minutes ago):

KSRR 011215Z AUTO 27009KT 10SM CLR 06/M07 A3030 RMK AO2

Closest aviation forecast (TAF) to Skeen Ranch Airport

Closest forecast is Roswell Air Center Airport, 31.3 nm (58.0 km) ENE. Retrieved 2021/12/01 12:27 UTC (0 seconds ago):

TAF KROW 011124Z 0112/0212 VRB05KT P6SM FEW250